Time;durP1;ratioP1;P1;durP2;ratioP2;P2;SDS_P1;SDS_P2;PMS_P1;PMS_P2;Temp;Humidity;BMP_temperature;BMP_pressure;BME280_temperature;BME280_humidity;BME280_pressure;Samples;Min_cycle;Max_cycle;Signal;HPM_P1;HPM_P2
2021/01/27 00:00:07;;;;;;;4.28;2.00;;;14.90;52.10;;;;;;5029769;28;20104;-75
2021/01/27 00:02:34;;;;;;;3.25;2.00;;;14.90;52.20;;;;;;5030451;28;20022;-76
2021/01/27 00:04:59;;;;;;;4.05;2.42;;;14.80;52.10;;;;;;5036396;28;20171;-76
2021/01/27 00:07:25;;;;;;;4.13;2.13;;;14.90;52.20;;;;;;5051126;28;20374;-76
2021/01/27 00:09:51;;;;;;;3.78;2.10;;;14.80;52.80;;;;;;5049623;28;20049;-75
2021/01/27 00:12:16;;;;;;;3.97;2.22;;;14.80;52.20;;;;;;5051099;28;20549;-75
2021/01/27 00:14:42;;;;;;;2.45;1.55;;;14.80;52.30;;;;;;5050874;28;20096;-76
2021/01/27 00:17:07;;;;;;;4.43;2.13;;;14.70;52.20;;;;;;5050154;28;20083;-76
2021/01/27 00:19:33;;;;;;;3.22;1.70;;;14.70;52.30;;;;;;5050602;28;20444;-76
2021/01/27 00:21:58;;;;;;;4.63;2.00;;;14.70;52.30;;;;;;5051380;28;20037;-75
2021/01/27 00:24:24;;;;;;;3.50;2.25;;;14.70;52.40;;;;;;5050993;28;20096;-75
2021/01/27 00:26:49;;;;;;;3.92;2.05;;;14.60;52.40;;;;;;5043176;28;20038;-76
2021/01/27 00:29:15;;;;;;;3.03;1.70;;;14.60;52.40;;;;;;5030779;28;20037;-76
2021/01/27 00:31:41;;;;;;;3.80;1.88;;;14.60;52.40;;;;;;5030749;28;20029;-76
2021/01/27 00:34:07;;;;;;;3.33;1.65;;;14.60;52.50;;;;;;5030687;28;20034;-76
2021/01/27 00:36:33;;;;;;;3.63;2.00;;;14.50;52.50;;;;;;5048324;28;20029;-76
2021/01/27 00:38:58;;;;;;;4.28;1.83;;;14.50;52.50;;;;;;5051179;28;20025;-76
2021/01/27 00:41:24;;;;;;;4.40;2.08;;;14.50;52.50;;;;;;5050852;28;20057;-76
2021/01/27 00:43:49;;;;;;;3.72;2.08;;;14.40;52.50;;;;;;5040856;28;20021;-76
2021/01/27 00:46:15;;;;;;;4.10;1.85;;;14.40;52.50;;;;;;5030699;28;20040;-76
2021/01/27 00:48:41;;;;;;;3.70;1.95;;;14.40;52.50;;;;;;5030600;28;20121;-76
2021/01/27 00:51:06;;;;;;;3.08;1.73;;;14.40;52.60;;;;;;5030631;28;20509;-76
2021/01/27 00:53:32;;;;;;;3.72;1.80;;;14.30;52.50;;;;;;5033411;28;20033;-76
2021/01/27 00:55:58;;;;;;;2.97;1.83;;;14.30;52.60;;;;;;5043557;28;20075;-77
2021/01/27 00:58:23;;;;;;;3.15;1.80;;;14.30;52.60;;;;;;5048321;28;20021;-76
2021/01/27 01:00:49;;;;;;;3.22;1.90;;;14.30;52.60;;;;;;5048890;28;20033;-76
2021/01/27 01:03:14;;;;;;;3.63;1.60;;;14.20;52.60;;;;;;5031825;28;20057;-76
2021/01/27 01:05:42;;;;;;;3.28;1.60;;;14.30;52.60;;;;;;5030504;28;20049;-76
2021/01/27 01:08:11;;;;;;;3.60;1.65;;;14.20;52.70;;;;;;5030633;28;20072;-77
2021/01/27 01:10:40;;;;;;;3.45;1.80;;;14.20;52.70;;;;;;5030125;28;20535;-76
2021/01/27 01:13:09;;;;;;;2.92;1.52;;;14.20;53.30;;;;;;5030391;28;20021;-77
2021/01/27 01:15:35;;;;;;;4.05;1.70;;;14.10;52.80;;;;;;5029906;28;20025;-77
2021/01/27 01:18:00;;;;;;;4.93;1.75;;;14.10;52.80;;;;;;5030983;28;20037;-76
2021/01/27 01:20:26;;;;;;;2.97;1.35;;;14.10;52.80;;;;;;5030504;28;20489;-76
2021/01/27 01:22:56;;;;;;;2.53;1.40;;;14.10;52.80;;;;;;5030178;28;20485;-76
2021/01/27 01:25:23;;;;;;;2.78;1.52;;;14.00;52.80;;;;;;5048057;28;20044;-76
2021/01/27 01:27:50;;;;;;;2.85;1.42;;;14.00;53.40;;;;;;5050594;28;20021;-76
2021/01/27 01:30:28;;;;;;;3.42;1.60;;;14.00;52.80;;;;;;5053727;28;20029;-76
2021/01/27 01:32:57;;;;;;;2.83;1.30;;;14.00;52.90;;;;;;5053656;28;20021;-76
2021/01/27 01:35:24;;;;;;;3.38;1.42;;;14.00;52.90;;;;;;5053796;28;20152;-76
2021/01/27 01:37:50;;;;;;;3.40;1.48;;;14.00;52.90;;;;;;5041391;28;20113;-76
2021/01/27 01:40:23;;;;;;;2.35;1.15;;;13.90;52.90;;;;;;5033932;28;20021;-76
2021/01/27 01:43:14;;;;;;;3.28;1.38;;;13.90;52.90;;;;;;5033394;28;20021;-76
2021/01/27 01:45:46;;;;;;;4.05;1.63;;;13.90;52.90;;;;;;5033456;28;20025;-76
2021/01/27 01:48:21;;;;;;;2.97;1.25;;;13.90;53.00;;;;;;5032469;28;20029;-76
2021/01/27 01:50:50;;;;;;;2.85;1.40;;;13.90;53.00;;;;;;5033259;28;20175;-76
2021/01/27 01:53:17;;;;;;;2.97;1.33;;;13.80;53.00;;;;;;5035558;28;20734;-76
2021/01/27 01:55:43;;;;;;;2.85;1.27;;;13.80;53.00;;;;;;5049856;28;20018;-76
2021/01/27 01:58:10;;;;;;;2.20;1.20;;;13.80;53.10;;;;;;5052081;28;20021;-76
2021/01/27 02:00:38;;;;;;;2.50;1.50;;;13.80;53.10;;;;;;5053298;28;20029;-76
2021/01/27 02:03:07;;;;;;;3.33;1.30;;;13.80;53.10;;;;;;5053173;28;20028;-76
2021/01/27 02:05:33;;;;;;;3.83;1.50;;;13.70;53.10;;;;;;5047794;28;20026;-76
2021/01/27 02:07:58;;;;;;;2.70;1.25;;;13.70;53.10;;;;;;5033648;28;20020;-76
2021/01/27 02:10:25;;;;;;;2.70;1.30;;;13.70;53.10;;;;;;5033168;28;20044;-76
2021/01/27 02:13:14;;;;;;;2.13;1.20;;;13.70;53.20;;;;;;5031730;28;20021;-76
2021/01/27 02:16:09;;;;;;;2.90;1.30;;;13.70;53.20;;;;;;5032849;28;20033;-76
2021/01/27 02:19:10;;;;;;;3.22;1.25;;;13.60;53.20;;;;;;5032461;28;20028;-76
2021/01/27 02:21:41;;;;;;;3.25;1.27;;;13.60;53.20;;;;;;5024607;28;20037;-76
2021/01/27 02:24:28;;;;;;;2.83;1.40;;;13.60;53.20;;;;;;5033829;28;20037;-76
2021/01/27 02:27:09;;;;;;;2.33;1.10;;;13.60;53.30;;;;;;5033662;28;20033;-76
2021/01/27 02:30:14;;;;;;;3.05;1.25;;;13.60;53.30;;;;;;5032536;28;20030;-76
2021/01/27 02:32:49;;;;;;;2.95;1.20;;;13.50;53.30;;;;;;5031235;28;20107;-76
2021/01/27 02:35:38;;;;;;;2.15;1.20;;;13.50;53.30;;;;;;5032920;28;20030;-76
2021/01/27 02:38:07;;;;;;;4.03;0.93;;;13.50;53.40;;;;;;5032396;28;20029;-76
2021/01/27 02:40:35;;;;;;;2.17;1.10;;;13.50;53.40;;;;;;5031509;28;20483;-76
2021/01/27 02:43:13;;;;;;;2.55;1.40;;;13.50;53.40;;;;;;5033008;28;20029;-76
2021/01/27 02:45:46;;;;;;;2.95;1.30;;;13.50;53.50;;;;;;5032542;28;20025;-76
2021/01/27 02:48:21;;;;;;;3.03;1.30;;;13.50;53.50;;;;;;5032673;28;20389;-76
2021/01/27 02:50:57;;;;;;;1.70;1.30;;;13.40;53.50;;;;;;5032280;28;20030;-76
2021/01/27 02:53:31;;;;;;;2.20;1.20;;;13.40;53.50;;;;;;5041047;28;20029;-76
2021/01/27 02:56:20;;;;;;;1.67;1.00;;;13.40;53.50;;;;;;5032507;28;20025;-75
2021/01/27 02:58:57;;;;;;;2.53;1.08;;;13.40;53.60;;;;;;5031863;28;20096;-76
2021/01/27 03:01:51;;;;;;;3.72;1.65;;;13.40;53.60;;;;;;5032468;28;20040;-76
2021/01/27 03:04:25;;;;;;;1.45;1.00;;;13.40;53.70;;;;;;5032331;28;20033;-77
2021/01/27 03:06:52;;;;;;;2.22;1.10;;;13.30;53.60;;;;;;5031991;28;20531;-76
2021/01/27 03:09:29;;;;;;;3.38;1.42;;;13.30;53.60;;;;;;5032237;28;20032;-76
2021/01/27 03:11:55;;;;;;;2.47;1.00;;;13.30;53.70;;;;;;5032037;28;20064;-76
2021/01/27 03:14:21;;;;;;;3.35;1.05;;;13.30;53.70;;;;;;5032116;28;20025;-76
2021/01/27 03:17:00;;;;;;;2.92;1.27;;;13.30;53.80;;;;;;5031878;28;20060;-76
2021/01/27 03:19:36;;;;;;;1.75;0.93;;;13.30;53.80;;;;;;5032013;28;20428;-76
2021/01/27 03:22:14;;;;;;;;;;;13.30;53.90;;;;;;5032686;28;20061;-76
2021/01/27 03:24:49;;;;;;;1.75;0.90;;;13.30;53.90;;;;;;5050966;28;19912;-76
2021/01/27 03:27:20;;;;;;;2.70;1.17;;;13.30;54.50;;;;;;5050297;28;20158;-76
2021/01/27 03:29:57;;;;;;;2.00;1.15;;;13.20;53.90;;;;;;5051422;28;20033;-76
2021/01/27 03:32:41;;;;;;;2.22;1.20;;;13.20;53.90;;;;;;5033053;28;20041;-76
2021/01/27 03:35:17;;;;;;;3.58;1.27;;;13.20;54.00;;;;;;5051232;28;20501;-76
2021/01/27 03:37:56;;;;;;;3.38;1.20;;;13.20;53.90;;;;;;5051474;28;20029;-76
2021/01/27 03:40:23;;;;;;;2.55;1.00;;;13.20;54.00;;;;;;5036748;28;20045;-76
2021/01/27 03:43:21;;;;;;;4.32;1.20;;;13.20;54.00;;;;;;5031510;28;20021;-76
2021/01/27 03:45:50;;;;;;;3.28;1.25;;;13.20;54.10;;;;;;5010653;28;20045;-76
2021/01/27 03:48:41;;;;;;;2.20;1.27;;;13.20;54.10;;;;;;5030199;28;20535;-76
2021/01/27 03:51:09;;;;;;;3.67;1.20;;;13.10;54.10;;;;;;5031291;28;20116;-76
2021/01/27 03:53:35;;;;;;;3.55;1.33;;;13.20;54.20;;;;;;5039927;28;20053;-76
2021/01/27 03:56:20;;;;;;;2.92;1.20;;;13.10;54.20;;;;;;5031440;28;20404;-76
2021/01/27 03:58:47;;;;;;;2.85;1.10;;;13.10;54.70;;;;;;5031170;28;20021;-76
2021/01/27 04:01:18;;;;;;;3.13;1.20;;;13.10;54.20;;;;;;5031344;28;20079;-76
2021/01/27 04:03:45;;;;;;;1.77;1.00;;;13.10;54.20;;;;;;5031161;28;20100;-76
2021/01/27 04:06:13;;;;;;;2.47;1.17;;;13.10;54.20;;;;;;5031044;28;20026;-76
2021/01/27 04:08:39;;;;;;;2.92;1.00;;;13.10;54.30;;;;;;5030847;28;20401;-76
2021/01/27 04:11:06;;;;;;;2.33;1.45;;;13.00;54.30;;;;;;5031178;28;20060;-76
2021/01/27 04:13:32;;;;;;;1.85;1.05;;;13.00;54.30;;;;;;5031141;28;20026;-76
2021/01/27 04:15:58;;;;;;;2.70;1.10;;;13.10;54.40;;;;;;5031520;28;20159;-76
2021/01/27 04:18:24;;;;;;;2.13;1.15;;;13.00;54.40;;;;;;5031159;28;20089;-76
2021/01/27 04:20:49;;;;;;;2.92;1.15;;;13.00;54.40;;;;;;5029316;28;20040;-75
2021/01/27 04:23:15;;;;;;;3.13;1.40;;;13.00;54.50;;;;;;5043007;28;20024;-75
2021/01/27 04:25:41;;;;;;;2.58;1.13;;;13.00;55.00;;;;;;5036593;28;20022;-76
2021/01/27 04:28:07;;;;;;;2.60;1.23;;;13.00;54.50;;;;;;5031149;28;20036;-75
2021/01/27 04:30:35;;;;;;;2.33;1.05;;;13.00;54.50;;;;;;5030684;28;20036;-75
2021/01/27 04:33:04;;;;;;;1.70;0.90;;;13.00;54.50;;;;;;5031170;28;20029;-75
2021/01/27 04:35:31;;;;;;;3.10;1.20;;;13.00;54.60;;;;;;5031270;28;20017;-75
2021/01/27 04:37:57;;;;;;;2.00;1.00;;;13.00;54.60;;;;;;5031006;28;20044;-75
2021/01/27 04:40:34;;;;;;;1.67;0.90;;;13.00;54.60;;;;;;5030865;28;20028;-75
2021/01/27 04:43:01;;;;;;;1.88;1.27;;;12.90;54.60;;;;;;5031019;28;20034;-75
2021/01/27 04:45:27;;;;;;;2.60;1.15;;;12.90;54.70;;;;;;5030470;28;20489;-75
2021/01/27 04:48:04;;;;;;;2.25;1.20;;;12.90;54.70;;;;;;5030659;28;20040;-75
2021/01/27 04:50:36;;;;;;;2.63;1.13;;;12.90;54.70;;;;;;5031119;28;20063;-75
2021/01/27 04:53:26;;;;;;;3.08;1.35;;;12.90;55.30;;;;;;5039756;28;20032;-76
2021/01/27 04:56:23;;;;;;;1.73;1.10;;;12.90;54.80;;;;;;5050287;28;20040;-76
2021/01/27 04:59:25;;;;;;;3.10;1.50;;;12.90;54.80;;;;;;5050518;28;20075;-76
2021/01/27 05:02:05;;;;;;;2.38;0.90;;;12.90;54.80;;;;;;5050134;28;20082;-75
2021/01/27 05:04:59;;;;;;;3.17;1.40;;;12.90;54.80;;;;;;5054452;28;20366;-76
2021/01/27 05:07:43;;;;;;;1.88;1.17;;;12.90;54.90;;;;;;5054169;28;20017;-76
2021/01/27 05:10:18;;;;;;;3.03;1.52;;;12.90;54.90;;;;;;5054218;28;20123;-76
2021/01/27 05:12:59;;;;;;;2.90;1.35;;;12.80;54.80;;;;;;5053954;28;20025;-75
2021/01/27 05:15:25;;;;;;;2.58;1.20;;;12.90;55.50;;;;;;5043885;28;20033;-76
2021/01/27 05:17:52;;;;;;;2.65;1.27;;;12.80;54.90;;;;;;5034093;28;20426;-76
2021/01/27 05:20:20;;;;;;;2.90;1.35;;;12.80;54.90;;;;;;5034322;28;20067;-76
2021/01/27 05:22:46;;;;;;;2.65;1.50;;;12.80;54.90;;;;;;5044252;28;20748;-76
2021/01/27 05:25:40;;;;;;;1.92;1.08;;;12.80;54.90;;;;;;5038597;28;20124;-75
2021/01/27 05:28:12;;;;;;;2.10;1.10;;;12.80;55.50;;;;;;5010744;28;20037;-76
2021/01/27 05:30:54;;;;;;;2.58;1.30;;;12.80;55.50;;;;;;5013885;28;20541;-76
2021/01/27 05:33:39;;;;;;;2.28;1.20;;;12.80;55.00;;;;;;5014148;28;20053;-76
2021/01/27 05:36:13;;;;;;;3.65;1.30;;;12.80;55.00;;;;;;5013793;28;20037;-76
2021/01/27 05:38:39;;;;;;;1.58;1.02;;;12.80;55.10;;;;;;5013892;28;20025;-76
2021/01/27 05:41:06;;;;;;;3.63;1.42;;;12.80;55.60;;;;;;5014063;28;20408;-75
2021/01/27 05:43:33;;;;;;;2.05;1.20;;;12.70;55.00;;;;;;5012537;28;20076;-75
2021/01/27 05:46:14;;;;;;;3.65;1.38;;;12.80;55.10;;;;;;5014194;28;20042;-75
2021/01/27 05:48:48;;;;;;;2.45;1.30;;;12.70;55.10;;;;;;5013747;28;20029;-75
2021/01/27 05:51:34;;;;;;;4.07;1.67;;;12.70;55.10;;;;;;5013918;28;20045;-75
2021/01/27 05:54:18;;;;;;;2.65;1.30;;;12.70;55.10;;;;;;5014094;28;20398;-75
2021/01/27 05:56:43;;;;;;;2.67;1.17;;;12.70;55.20;;;;;;5013291;28;20034;-75
2021/01/27 05:59:22;;;;;;;2.78;1.25;;;12.70;55.20;;;;;;5013934;28;20276;-75
2021/01/27 06:01:50;;;;;;;2.92;1.35;;;12.70;55.20;;;;;;5042944;28;20033;-75
2021/01/27 06:04:24;;;;;;;2.03;1.10;;;12.70;55.20;;;;;;5052897;28;20401;-75
2021/01/27 06:06:49;;;;;;;2.33;1.08;;;12.70;55.20;;;;;;5052942;28;20032;-75
2021/01/27 06:09:48;;;;;;;4.47;1.23;;;12.70;55.30;;;;;;5053315;28;20025;-75
2021/01/27 06:12:20;;;;;;;2.53;1.08;;;12.70;55.30;;;;;;5031724;28;20416;-76
2021/01/27 06:14:47;;;;;;;3.53;1.23;;;12.70;55.30;;;;;;5032855;28;20600;-76
2021/01/27 06:17:27;;;;;;;1.85;1.20;;;12.70;55.40;;;;;;5031910;28;20458;-76
2021/01/27 06:20:00;;;;;;;3.97;1.40;;;12.60;55.40;;;;;;5032762;28;20029;-76
2021/01/27 06:22:43;;;;;;;1.70;1.23;;;12.70;55.40;;;;;;5039779;28;20025;-76
2021/01/27 06:25:32;;;;;;;2.55;1.52;;;12.60;55.40;;;;;;5053012;28;20021;-76
2021/01/27 06:28:18;;;;;;;2.30;1.20;;;12.60;55.40;;;;;;5053064;28;20025;-76
2021/01/27 06:31:03;;;;;;;2.38;1.10;;;12.60;55.50;;;;;;5052099;28;20163;-76
2021/01/27 06:33:49;;;;;;;2.55;1.40;;;12.60;55.50;;;;;;5052740;28;20048;-76
2021/01/27 06:36:44;;;;;;;2.80;1.73;;;12.70;55.60;;;;;;5048487;28;20424;-76
2021/01/27 06:39:41;;;;;;;2.70;1.20;;;12.60;55.60;;;;;;5031599;28;20045;-76
2021/01/27 06:42:38;;;;;;;2.00;1.13;;;12.60;55.60;;;;;;5032705;28;20094;-76
2021/01/27 06:45:16;;;;;;;2.60;1.35;;;12.60;55.60;;;;;;5032136;28;20377;-76
2021/01/27 06:48:09;;;;;;;2.50;1.13;;;12.60;55.70;;;;;;5032441;28;20051;-76
2021/01/27 06:50:44;;;;;;;3.75;1.73;;;12.60;55.70;;;;;;5032146;28;20041;-76
2021/01/27 06:53:15;;;;;;;2.88;1.60;;;12.60;55.70;;;;;;5044738;28;20036;-77
2021/01/27 06:55:47;;;;;;;2.95;1.40;;;12.60;55.70;;;;;;5043278;28;20033;-76
2021/01/27 06:58:36;;;;;;;2.50;1.27;;;12.60;55.70;;;;;;5031884;28;20046;-75
2021/01/27 07:01:40;;;;;;;3.17;1.40;;;12.60;55.80;;;;;;5031141;28;20474;-77
2021/01/27 07:04:33;;;;;;;4.20;1.42;;;12.60;55.80;;;;;;5032346;28;20022;-76
2021/01/27 07:07:23;;;;;;;2.33;1.30;;;12.70;55.80;;;;;;5032576;28;20025;-76
2021/01/27 07:10:12;;;;;;;2.28;1.13;;;12.90;55.70;;;;;;5031936;28;20491;-75
2021/01/27 07:12:44;;;;;;;3.47;1.63;;;13.00;55.60;;;;;;5031922;28;20481;-76
2021/01/27 07:15:24;;;;;;;2.38;1.23;;;13.10;55.40;;;;;;5031980;28;20033;-76
2021/01/27 07:18:09;;;;;;;2.63;1.20;;;13.30;55.40;;;;;;5031663;28;20485;-75
2021/01/27 07:20:41;;;;;;;4.35;1.50;;;13.40;55.30;;;;;;5031717;28;20548;-76
2021/01/27 07:23:35;;;;;;;2.60;1.00;;;13.60;55.40;;;;;;5043831;28;20104;-75
2021/01/27 07:26:11;;;;;;;3.13;1.10;;;13.80;55.30;;;;;;5051809;28;20370;-75
2021/01/27 07:28:59;;;;;;;1.85;1.10;;;14.10;55.30;;;;;;5032627;28;20021;-77
2021/01/27 07:31:46;;;;;;;3.10;1.08;;;14.30;55.70;;;;;;5030821;28;20041;-75
2021/01/27 07:34:29;;;;;;;2.55;1.00;;;14.50;55.70;;;;;;5031508;28;20037;-77
2021/01/27 07:37:13;;;;;;;4.95;1.20;;;14.60;55.90;;;;;;5031214;28;20040;-76
2021/01/27 07:40:10;;;;;;;4.10;1.33;;;14.70;56.20;;;;;;5031358;28;20025;-77
2021/01/27 07:42:49;;;;;;;7.00;1.25;;;14.80;56.30;;;;;;5031040;28;20032;-76
2021/01/27 07:45:22;;;;;;;2.22;1.17;;;15.00;56.40;;;;;;5029746;28;20025;-76
2021/01/27 07:47:50;;;;;;;6.75;1.30;;;15.10;56.00;;;;;;5030461;28;20025;-77
2021/01/27 07:50:19;;;;;;;2.65;1.10;;;15.00;55.70;;;;;;5030635;28;20029;-76
2021/01/27 07:53:22;;;;;;;6.47;1.67;;;15.00;55.60;;;;;;5045488;28;20032;-74
2021/01/27 07:56:09;;;;;;;4.68;1.20;;;15.00;56.20;;;;;;5048853;28;20024;-75
2021/01/27 07:58:59;;;;;;;2.92;1.38;;;15.00;56.10;;;;;;5011458;28;20104;-78
2021/01/27 08:01:36;;;;;;;4.93;1.48;;;15.00;56.00;;;;;;5025294;28;20033;-77
2021/01/27 08:04:24;;;;;;;5.50;1.10;;;15.10;56.20;;;;;;5030952;28;20478;-78
2021/01/27 08:06:56;;;;;;;2.95;1.20;;;15.10;55.70;;;;;;5026871;28;20080;-77
2021/01/27 08:09:43;;;;;;;3.53;1.50;;;15.10;55.80;;;;;;5030334;28;20436;-77
2021/01/27 08:12:35;;;;;;;4.65;1.60;;;15.10;55.80;;;;;;5029273;28;20041;-78
2021/01/27 08:15:11;;;;;;;4.60;1.70;;;15.10;55.70;;;;;;5030179;28;20025;-77
2021/01/27 08:17:46;;;;;;;3.17;1.45;;;15.10;55.60;;;;;;5030964;28;20021;-78
2021/01/27 08:20:36;;;;;;;8.52;4.93;;;15.20;55.60;;;;;;5031232;28;20044;-77
2021/01/27 08:23:21;;;;;;;13.90;10.50;;;15.20;55.90;;;;;;5030965;28;20374;-78
2021/01/27 08:26:05;;;;;;;11.43;6.40;;;15.10;56.40;;;;;;5030605;28;20505;-78
2021/01/27 08:28:37;;;;;;;8.07;5.82;;;15.20;56.40;;;;;;5029605;28;20017;-76
2021/01/27 08:31:16;;;;;;;8.20;5.63;;;15.20;56.40;;;;;;5029588;28;20120;-75
2021/01/27 08:33:44;;;;;;;9.60;5.45;;;15.10;56.30;;;;;;5042805;28;20025;-75
2021/01/27 08:36:33;;;;;;;6.38;4.82;;;15.10;56.10;;;;;;5048848;28;20086;-75
2021/01/27 08:38:59;;;;;;;5.55;4.32;;;15.10;56.00;;;;;;5014108;28;20034;-74
2021/01/27 08:41:54;;;;;;;5.00;3.88;;;15.00;55.80;;;;;;5037564;28;20032;-74
2021/01/27 08:44:20;;;;;;;6.35;3.75;;;15.00;56.40;;;;;;5053020;28;20037;-75
2021/01/27 08:47:20;;;;;;;4.75;3.53;;;15.00;55.80;;;;;;5046991;28;20096;-75
2021/01/27 08:49:54;;;;;;;6.18;3.67;;;15.00;55.70;;;;;;5010110;28;20045;-75
2021/01/27 08:52:20;;;;;;;5.50;3.67;;;14.90;55.70;;;;;;5033110;28;20108;-75
2021/01/27 08:54:49;;;;;;;4.95;3.55;;;14.90;55.70;;;;;;5032650;28;20109;-74
2021/01/27 08:57:30;;;;;;;7.45;3.67;;;14.90;55.70;;;;;;5033867;28;20396;-75
2021/01/27 09:00:17;;;;;;;5.10;3.38;;;14.80;55.60;;;;;;5031703;28;20435;-74
2021/01/27 09:03:02;;;;;;;5.13;2.90;;;14.80;55.60;;;;;;5034375;28;20022;-74
2021/01/27 09:05:27;;;;;;;4.80;3.03;;;14.80;55.60;;;;;;5034557;28;20032;-75
2021/01/27 09:07:59;;;;;;;5.20;2.95;;;14.70;55.50;;;;;;5033438;28;20021;-74
2021/01/27 09:10:29;;;;;;;5.45;3.40;;;14.70;55.50;;;;;;5033361;28;20489;-74
2021/01/27 09:12:55;;;;;;;4.40;3.03;;;14.70;55.50;;;;;;5033649;28;20029;-74
2021/01/27 09:15:31;;;;;;;6.63;3.03;;;14.60;55.40;;;;;;5034458;28;20029;-75
2021/01/27 09:17:58;;;;;;;4.88;2.92;;;14.60;55.40;;;;;;5034558;28;20017;-75
2021/01/27 09:20:27;;;;;;;4.75;2.80;;;14.60;55.50;;;;;;5033653;28;20100;-74
2021/01/27 09:23:02;;;;;;;4.68;2.72;;;14.60;55.50;;;;;;5034019;28;20021;-74
2021/01/27 09:25:30;;;;;;;7.13;3.15;;;14.50;55.40;;;;;;5034642;28;20112;-74
2021/01/27 09:28:04;;;;;;;5.93;3.15;;;14.50;55.50;;;;;;5033875;28;20034;-73
2021/01/27 09:30:31;;;;;;;4.65;2.83;;;14.50;55.50;;;;;;5033810;28;20041;-74
2021/01/27 09:33:08;;;;;;;3.58;2.75;;;14.40;55.50;;;;;;5032663;28;20029;-74
2021/01/27 09:35:34;;;;;;;3.70;2.67;;;14.40;55.50;;;;;;5032600;28;20030;-75
2021/01/27 09:38:05;;;;;;;4.88;2.63;;;14.40;55.50;;;;;;5031837;28;20032;-74
2021/01/27 09:40:45;;;;;;;4.28;2.83;;;14.30;55.50;;;;;;5033122;28;20366;-75
2021/01/27 09:43:15;;;;;;;3.50;2.25;;;14.30;55.60;;;;;;5032031;28;20041;-74
2021/01/27 09:45:44;;;;;;;5.53;2.47;;;14.30;55.60;;;;;;5031554;28;20021;-74
2021/01/27 09:48:11;;;;;;;5.75;2.55;;;14.20;55.60;;;;;;5032083;28;20137;-75
2021/01/27 09:50:44;;;;;;;5.93;2.75;;;14.20;56.20;;;;;;5032065;28;20029;-76
2021/01/27 09:53:33;;;;;;;4.18;2.45;;;14.20;55.70;;;;;;5039229;28;20028;-75
2021/01/27 09:56:00;;;;;;;3.90;2.58;;;14.20;55.70;;;;;;5048759;28;20116;-74
2021/01/27 09:58:27;;;;;;;4.22;2.80;;;14.10;55.80;;;;;;5032251;28;20104;-74
2021/01/27 10:01:01;;;;;;;5.63;2.55;;;14.10;55.80;;;;;;5032239;28;20551;-74
2021/01/27 10:03:30;;;;;;;5.03;2.85;;;14.00;55.80;;;;;;5032411;28;20029;-74
2021/01/27 10:05:56;;;;;;;3.45;2.35;;;14.00;55.90;;;;;;5030756;28;20060;-74
2021/01/27 10:08:30;;;;;;;4.40;2.38;;;14.00;55.90;;;;;;5032330;28;20034;-73
2021/01/27 10:11:00;;;;;;;4.25;2.97;;;14.00;56.00;;;;;;5031954;28;20045;-74
2021/01/27 10:13:31;;;;;;;3.92;2.42;;;13.90;56.00;;;;;;5031909;28;20014;-74
2021/01/27 10:16:17;;;;;;;4.80;2.63;;;13.90;56.00;;;;;;5030825;28;20489;-74
2021/01/27 10:18:44;;;;;;;4.13;2.63;;;13.90;56.00;;;;;;5031652;28;20041;-74
2021/01/27 10:21:16;;;;;;;5.38;2.55;;;13.90;56.00;;;;;;5032204;28;20033;-75
2021/01/27 10:23:47;;;;;;;4.10;2.53;;;13.90;56.10;;;;;;5030532;28;20030;-77
2021/01/27 10:26:22;;;;;;;4.13;2.08;;;13.90;56.20;;;;;;5034555;28;20053;-76
2021/01/27 10:29:07;;;;;;;3.92;2.38;;;13.80;56.20;;;;;;5031159;28;20021;-75
2021/01/27 10:31:35;;;;;;;4.50;2.63;;;13.90;56.20;;;;;;5011753;28;590709;-74
2021/01/27 10:34:01;;;;;;;5.10;2.72;;;13.80;56.20;;;;;;5033159;28;20112;-74
2021/01/27 10:36:32;;;;;;;4.18;2.42;;;13.80;56.20;;;;;;5033249;28;20549;-74
2021/01/27 10:39:11;;;;;;;3.60;2.30;;;13.90;56.20;;;;;;5030901;28;20516;-73
2021/01/27 10:41:37;;;;;;;3.55;2.03;;;13.90;56.20;;;;;;5032715;28;20021;-74
2021/01/27 10:44:30;;;;;;;4.38;2.25;;;13.90;56.20;;;;;;5031780;28;20388;-74
2021/01/27 10:47:22;;;;;;;4.47;2.40;;;14.00;56.20;;;;;;5032610;28;20026;-74
2021/01/27 10:49:49;;;;;;;4.22;2.15;;;14.10;56.10;;;;;;5031791;28;20056;-74
2021/01/27 10:52:33;;;;;;;4.38;2.40;;;14.10;56.60;;;;;;5032645;28;20033;-74
2021/01/27 10:55:06;;;;;;;4.80;2.60;;;14.20;56.00;;;;;;5040828;28;20033;-74
2021/01/27 10:57:32;;;;;;;4.10;2.30;;;14.30;55.90;;;;;;5038248;28;20038;-75
2021/01/27 10:59:57;;;;;;;3.63;1.98;;;14.40;55.90;;;;;;5032197;28;20400;-74
2021/01/27 11:02:23;;;;;;;4.05;2.30;;;14.40;55.80;;;;;;5034499;28;20025;-74
2021/01/27 11:04:49;;;;;;;3.60;2.17;;;14.50;55.70;;;;;;5049957;28;20021;-74
2021/01/27 11:07:16;;;;;;;3.20;2.00;;;14.60;55.60;;;;;;5038728;28;20033;-74
2021/01/27 11:09:41;;;;;;;3.60;1.65;;;14.70;55.60;;;;;;5032436;28;20040;-74
2021/01/27 11:12:07;;;;;;;3.55;2.10;;;14.80;55.50;;;;;;5031827;28;20041;-73
2021/01/27 11:14:33;;;;;;;4.30;2.30;;;14.90;55.50;;;;;;5030923;28;20025;-74
2021/01/27 11:17:01;;;;;;;3.40;1.77;;;15.00;55.50;;;;;;5031695;28;20049;-73
2021/01/27 11:19:26;;;;;;;3.58;2.00;;;15.10;55.50;;;;;;5030848;28;20084;-73
2021/01/27 11:21:52;;;;;;;3.55;2.38;;;15.10;55.60;;;;;;5030648;28;20524;-74
2021/01/27 11:24:18;;;;;;;4.30;2.28;;;15.20;55.80;;;;;;5030652;28;20025;-74
2021/01/27 11:26:43;;;;;;;7.32;2.28;;;15.40;56.70;;;;;;5030339;28;20033;-75
2021/01/27 11:29:09;;;;;;;14.20;3.38;;;15.40;57.10;;;;;;5032018;28;20394;-74
2021/01/27 11:31:35;;;;;;;28.83;5.10;;;15.50;57.80;;;;;;5030625;28;20413;-75
2021/01/27 11:34:01;;;;;;;20.90;4.53;;;15.50;58.20;;;;;;5031492;28;20100;-75
2021/01/27 11:36:26;;;;;;;26.17;4.97;;;15.70;59.20;;;;;;5030737;28;20029;-74
2021/01/27 11:38:53;;;;;;;20.45;4.15;;;15.80;60.00;;;;;;5030702;28;20032;-74
2021/01/27 11:41:20;;;;;;;21.83;4.80;;;16.00;60.70;;;;;;5031556;28;20378;-74
2021/01/27 11:43:46;;;;;;;14.40;4.38;;;16.10;60.80;;;;;;5031301;28;20475;-73
2021/01/27 11:46:13;;;;;;;17.50;4.75;;;16.20;61.90;;;;;;5031473;28;20393;-74
2021/01/27 11:48:39;;;;;;;24.63;5.22;;;16.30;62.20;;;;;;5031380;28;20017;-73
2021/01/27 11:51:06;;;;;;;9.55;3.80;;;16.50;62.80;;;;;;5031139;28;20113;-74
2021/01/27 11:53:32;;;;;;;20.23;4.93;;;16.60;63.60;;;;;;5031391;28;20037;-74
2021/01/27 11:55:58;;;;;;;20.02;4.30;;;16.60;62.20;;;;;;5048598;28;20029;-74
2021/01/27 11:58:24;;;;;;;13.15;3.92;;;16.70;61.90;;;;;;5050964;28;20108;-74
2021/01/27 12:00:50;;;;;;;13.50;3.65;;;16.80;61.60;;;;;;5037827;28;20033;-73
2021/01/27 12:03:16;;;;;;;13.30;3.33;;;16.90;61.40;;;;;;5030251;28;20032;-74
2021/01/27 12:05:41;;;;;;;15.20;3.53;;;17.00;60.90;;;;;;5029455;28;20030;-73
2021/01/27 12:08:07;;;;;;;12.32;3.75;;;17.10;61.30;;;;;;5030989;28;20476;-74
2021/01/27 12:10:33;;;;;;;14.65;3.63;;;17.20;60.20;;;;;;5048194;28;20501;-74
2021/01/27 12:12:58;;;;;;;11.57;3.42;;;17.30;59.90;;;;;;5044451;28;20056;-74
2021/01/27 12:15:24;;;;;;;9.02;3.05;;;17.30;59.70;;;;;;5030313;28;20450;-73
2021/01/27 12:17:51;;;;;;;15.13;3.92;;;17.40;59.40;;;;;;5030108;28;20407;-74
2021/01/27 12:20:18;;;;;;;10.80;3.40;;;17.40;59.20;;;;;;5030837;28;20071;-75
2021/01/27 12:22:44;;;;;;;10.27;3.70;;;17.50;59.20;;;;;;5030879;28;20018;-74
2021/01/27 12:25:10;;;;;;;13.23;4.03;;;17.60;59.00;;;;;;5030753;28;20029;-77
2021/01/27 12:27:36;;;;;;;10.90;3.63;;;17.70;58.90;;;;;;5029066;28;20026;-79
2021/01/27 12:30:03;;;;;;;9.80;2.90;;;17.80;58.70;;;;;;5030432;28;20497;-75
2021/01/27 12:32:29;;;;;;;7.90;2.90;;;17.80;58.40;;;;;;5029460;28;20041;-76
2021/01/27 12:34:54;;;;;;;10.75;3.45;;;17.90;58.30;;;;;;5030899;28;20478;-74
2021/01/27 12:37:20;;;;;;;12.57;3.45;;;17.90;58.20;;;;;;5029850;28;20033;-75
2021/01/27 12:39:46;;;;;;;14.07;3.47;;;17.90;58.20;;;;;;5039349;28;20071;-76
2021/01/27 12:42:12;;;;;;;9.60;3.22;;;17.90;58.00;;;;;;5050917;28;20025;-75
2021/01/27 12:44:43;;;;;;;10.82;3.38;;;17.90;57.90;;;;;;5050867;28;20017;-75
2021/01/27 12:47:10;;;;;;;10.75;3.67;;;18.00;57.80;;;;;;5049603;28;20032;-75
2021/01/27 12:49:35;;;;;;;10.50;4.03;;;18.00;57.70;;;;;;5030638;28;20042;-74
2021/01/27 12:52:01;;;;;;;8.90;3.67;;;18.00;57.60;;;;;;5045362;28;20067;-74
2021/01/27 12:54:27;;;;;;;11.45;4.75;;;17.90;58.10;;;;;;5049547;28;20021;-75
2021/01/27 12:56:52;;;;;;;12.60;4.00;;;17.80;57.50;;;;;;5050342;28;20469;-74
2021/01/27 12:59:18;;;;;;;13.95;4.18;;;17.80;57.60;;;;;;5030181;28;20044;-74
2021/01/27 13:01:44;;;;;;;7.53;3.97;;;17.70;57.60;;;;;;5029214;28;20112;-75
2021/01/27 13:04:10;;;;;;;11.85;4.63;;;17.60;57.60;;;;;;5037673;28;20037;-76
2021/01/27 13:06:35;;;;;;;8.07;4.25;;;17.50;57.50;;;;;;5029175;28;20022;-76
2021/01/27 13:09:01;;;;;;;12.63;4.47;;;17.50;57.50;;;;;;5030570;28;20033;-74
2021/01/27 13:11:27;;;;;;;12.45;4.72;;;17.40;57.30;;;;;;5037238;28;20040;-75
2021/01/27 13:13:52;;;;;;;10.18;4.13;;;17.40;57.30;;;;;;5043561;28;20075;-75
2021/01/27 13:16:18;;;;;;;11.63;4.85;;;17.40;57.30;;;;;;5030160;28;20034;-75